Vauxhall, New Jersey
Current Conditions -  °F | °C
As of 2:51 AM on Thursday 29 Jan 2015 (Local Time) from KEWR Reporting Station
Clear Clear  
Wind Chill: 18°   Ceiling: Unl
Heat Index: 18°   Visibility: 10mi
Dew Point:   Wind: 3mph
Humidity: 52%   Direction: 340°NNW
Pressure: 30.32"   Gusts: NA
Location:  40.73°N, 74.28°W
Report Text: KEWR 290751Z 34003KT 10SM CLR M08/M16 A3032 RMK AO2 SLP267 T10781161
Loading
Personal Weather Stations






























Interactive Weather Map New forecast layout! Learn more

10-Day Weather Forecast

Advertisements
Track Severe Weather on mobile